sensor_id;sensor_type;location;lat;lon;timestamp;temperature;humidity
45207;DHT22;30950;53.086;21.576;2024-03-08T00:01:41;-0.90;99.90
45207;DHT22;30950;53.086;21.576;2024-03-08T00:04:08;-0.80;99.90
45207;DHT22;30950;53.086;21.576;2024-03-08T00:06:35;-0.90;99.90
45207;DHT22;30950;53.086;21.576;2024-03-08T00:09:03;-0.90;99.90
45207;DHT22;30950;53.086;21.576;2024-03-08T00:11:30;-0.80;99.90
45207;DHT22;30950;53.086;21.576;2024-03-08T00:13:58;-0.90;99.90
45207;DHT22;30950;53.086;21.576;2024-03-08T00:16:25;-0.90;99.90
45207;DHT22;30950;53.086;21.576;2024-03-08T00:18:53;-0.90;99.90
45207;DHT22;30950;53.086;21.576;2024-03-08T00:21:20;-0.90;99.90
45207;DHT22;30950;53.086;21.576;2024-03-08T00:23:47;-0.90;99.90
45207;DHT22;30950;53.086;21.576;2024-03-08T00:26:15;-1.00;99.90
45207;DHT22;30950;53.086;21.576;2024-03-08T00:28:42;-0.90;99.90
45207;DHT22;30950;53.086;21.576;2024-03-08T00:31:10;-0.90;99.90
45207;DHT22;30950;53.086;21.576;2024-03-08T00:33:37;-1.00;99.90
45207;DHT22;30950;53.086;21.576;2024-03-08T00:36:06;-1.00;99.90
45207;DHT22;30950;53.086;21.576;2024-03-08T00:38:35;-1.00;99.90
45207;DHT22;30950;53.086;21.576;2024-03-08T00:41:02;-1.00;99.90
45207;DHT22;30950;53.086;21.576;2024-03-08T00:43:29;-1.00;99.90
45207;DHT22;30950;53.086;21.576;2024-03-08T00:45:59;-1.00;99.90
45207;DHT22;30950;53.086;21.576;2024-03-08T00:48:28;-1.00;99.90
45207;DHT22;30950;53.086;21.576;2024-03-08T00:50:55;-1.10;99.90
45207;DHT22;30950;53.086;21.576;2024-03-08T00:53:23;-1.10;99.90
45207;DHT22;30950;53.086;21.576;2024-03-08T00:55:50;-1.10;99.90
45207;DHT22;30950;53.086;21.576;2024-03-08T00:58:17;-1.10;99.90
45207;DHT22;30950;53.086;21.576;2024-03-08T01:00:44;-1.30;99.90
45207;DHT22;30950;53.086;21.576;2024-03-08T01:03:12;-1.30;99.90
45207;DHT22;30950;53.086;21.576;2024-03-08T01:05:39;-1.20;99.90
45207;DHT22;30950;53.086;21.576;2024-03-08T01:08:06;-1.20;99.90
45207;DHT22;30950;53.086;21.576;2024-03-08T01:10:34;-1.20;99.90
45207;DHT22;30950;53.086;21.576;2024-03-08T01:13:02;-1.20;99.90
45207;DHT22;30950;53.086;21.576;2024-03-08T01:15:29;-1.40;99.90
45207;DHT22;30950;53.086;21.576;2024-03-08T01:20:26;-1.50;99.90
45207;DHT22;30950;53.086;21.576;2024-03-08T01:22:53;-1.40;99.90
45207;DHT22;30950;53.086;21.576;2024-03-08T01:25:20;-1.50;99.90
45207;DHT22;30950;53.086;21.576;2024-03-08T01:27:47;-1.50;99.90
45207;DHT22;30950;53.086;21.576;2024-03-08T01:30:15;-1.60;99.90
45207;DHT22;30950;53.086;21.576;2024-03-08T01:32:44;-1.50;99.90
45207;DHT22;30950;53.086;21.576;2024-03-08T01:35:11;-1.60;99.90
45207;DHT22;30950;53.086;21.576;2024-03-08T01:37:39;-1.60;99.90
45207;DHT22;30950;53.086;21.576;2024-03-08T01:40:06;-1.60;99.90
45207;DHT22;30950;53.086;21.576;2024-03-08T01:42:35;-1.60;99.90
45207;DHT22;30950;53.086;21.576;2024-03-08T01:45:06;-1.60;99.90
45207;DHT22;30950;53.086;21.576;2024-03-08T01:47:34;-1.70;99.90
45207;DHT22;30950;53.086;21.576;2024-03-08T01:50:01;-1.70;99.90
45207;DHT22;30950;53.086;21.576;2024-03-08T01:52:30;-1.70;99.90
45207;DHT22;30950;53.086;21.576;2024-03-08T01:54:59;-1.60;99.90
45207;DHT22;30950;53.086;21.576;2024-03-08T01:57:28;-1.70;99.90
45207;DHT22;30950;53.086;21.576;2024-03-08T01:59:56;-1.70;99.90
45207;DHT22;30950;53.086;21.576;2024-03-08T02:02:23;-1.70;99.90
45207;DHT22;30950;53.086;21.576;2024-03-08T02:04:51;-1.80;99.90
45207;DHT22;30950;53.086;21.576;2024-03-08T02:07:20;-1.70;99.90
45207;DHT22;30950;53.086;21.576;2024-03-08T02:09:49;-1.70;99.90
45207;DHT22;30950;53.086;21.576;2024-03-08T02:12:16;-1.80;99.90
45207;DHT22;30950;53.086;21.576;2024-03-08T02:14:43;-1.60;99.90
45207;DHT22;30950;53.086;21.576;2024-03-08T02:17:11;-1.80;99.90
45207;DHT22;30950;53.086;21.576;2024-03-08T02:19:38;-1.80;99.90
45207;DHT22;30950;53.086;21.576;2024-03-08T02:22:06;-1.80;99.90
45207;DHT22;30950;53.086;21.576;2024-03-08T02:24:33;-1.80;99.90
45207;DHT22;30950;53.086;21.576;2024-03-08T02:27:01;-1.80;99.90
45207;DHT22;30950;53.086;21.576;2024-03-08T02:29:28;-1.80;99.90
45207;DHT22;30950;53.086;21.576;2024-03-08T02:31:56;-1.80;99.90
45207;DHT22;30950;53.086;21.576;2024-03-08T02:34:24;-1.80;99.90
45207;DHT22;30950;53.086;21.576;2024-03-08T02:36:52;-1.80;99.90
45207;DHT22;30950;53.086;21.576;2024-03-08T02:39:19;-2.00;99.90
45207;DHT22;30950;53.086;21.576;2024-03-08T02:41:47;-1.80;99.90
45207;DHT22;30950;53.086;21.576;2024-03-08T02:44:14;-1.90;99.90
45207;DHT22;30950;53.086;21.576;2024-03-08T02:46:42;-1.90;99.90
45207;DHT22;30950;53.086;21.576;2024-03-08T02:49:09;-1.90;99.90
45207;DHT22;30950;53.086;21.576;2024-03-08T02:51:36;-1.90;99.90
45207;DHT22;30950;53.086;21.576;2024-03-08T02:54:04;-1.90;99.90
45207;DHT22;30950;53.086;21.576;2024-03-08T02:56:31;-1.90;99.90
45207;DHT22;30950;53.086;21.576;2024-03-08T02:59:02;-1.90;99.90
45207;DHT22;30950;53.086;21.576;2024-03-08T03:01:30;-2.00;99.90
45207;DHT22;30950;53.086;21.576;2024-03-08T03:03:59;-2.00;99.90
45207;DHT22;30950;53.086;21.576;2024-03-08T03:06:26;-2.00;99.90
45207;DHT22;30950;53.086;21.576;2024-03-08T03:08:54;-1.90;99.90
45207;DHT22;30950;53.086;21.576;2024-03-08T03:11:21;-2.00;99.90
45207;DHT22;30950;53.086;21.576;2024-03-08T03:16:20;-1.90;99.90
45207;DHT22;30950;53.086;21.576;2024-03-08T03:18:47;-2.00;99.90
45207;DHT22;30950;53.086;21.576;2024-03-08T03:21:15;-1.90;99.90
45207;DHT22;30950;53.086;21.576;2024-03-08T03:23:42;-2.10;99.90
45207;DHT22;30950;53.086;21.576;2024-03-08T03:26:10;-2.00;99.90
45207;DHT22;30950;53.086;21.576;2024-03-08T03:28:40;-2.10;99.90
45207;DHT22;30950;53.086;21.576;2024-03-08T03:31:07;-2.00;99.90
45207;DHT22;30950;53.086;21.576;2024-03-08T03:33:36;-2.10;99.90
45207;DHT22;30950;53.086;21.576;2024-03-08T03:36:04;-2.10;99.90
45207;DHT22;30950;53.086;21.576;2024-03-08T03:38:37;-2.10;99.90
45207;DHT22;30950;53.086;21.576;2024-03-08T03:41:04;-2.10;99.90
45207;DHT22;30950;53.086;21.576;2024-03-08T03:43:37;-2.10;99.90
45207;DHT22;30950;53.086;21.576;2024-03-08T03:46:08;-2.10;99.90
45207;DHT22;30950;53.086;21.576;2024-03-08T03:48:37;-2.10;99.90
45207;DHT22;30950;53.086;21.576;2024-03-08T03:51:05;-2.20;99.90
45207;DHT22;30950;53.086;21.576;2024-03-08T03:53:33;-2.20;99.90
45207;DHT22;30950;53.086;21.576;2024-03-08T03:56:00;-2.30;99.90
45207;DHT22;30950;53.086;21.576;2024-03-08T03:58:27;-2.20;99.90
45207;DHT22;30950;53.086;21.576;2024-03-08T04:00:55;-2.20;99.90
45207;DHT22;30950;53.086;21.576;2024-03-08T04:03:22;-2.30;99.90
45207;DHT22;30950;53.086;21.576;2024-03-08T04:05:49;-2.20;99.90
45207;DHT22;30950;53.086;21.576;2024-03-08T04:08:17;-2.20;99.90
45207;DHT22;30950;53.086;21.576;2024-03-08T04:10:45;-2.30;99.90
45207;DHT22;30950;53.086;21.576;2024-03-08T04:13:12;-2.20;99.90
45207;DHT22;30950;53.086;21.576;2024-03-08T04:15:39;-2.30;99.90
45207;DHT22;30950;53.086;21.576;2024-03-08T04:18:06;-2.30;99.90
45207;DHT22;30950;53.086;21.576;2024-03-08T04:20:34;-2.20;99.90
45207;DHT22;30950;53.086;21.576;2024-03-08T04:23:04;-2.20;99.90
45207;DHT22;30950;53.086;21.576;2024-03-08T04:25:32;-2.30;99.90
45207;DHT22;30950;53.086;21.576;2024-03-08T04:27:59;-2.30;99.90
45207;DHT22;30950;53.086;21.576;2024-03-08T04:30:27;-2.30;99.90
45207;DHT22;30950;53.086;21.576;2024-03-08T04:32:55;-2.30;99.90
45207;DHT22;30950;53.086;21.576;2024-03-08T04:35:23;-2.40;99.90
45207;DHT22;30950;53.086;21.576;2024-03-08T04:37:50;-2.30;99.90
45207;DHT22;30950;53.086;21.576;2024-03-08T04:40:17;-2.30;99.90
45207;DHT22;30950;53.086;21.576;2024-03-08T04:42:46;-2.50;99.90
45207;DHT22;30950;53.086;21.576;2024-03-08T04:45:13;-2.40;99.90
45207;DHT22;30950;53.086;21.576;2024-03-08T04:47:41;-2.40;99.90
45207;DHT22;30950;53.086;21.576;2024-03-08T04:50:09;-2.40;99.90
45207;DHT22;30950;53.086;21.576;2024-03-08T04:52:36;-2.40;99.90
45207;DHT22;30950;53.086;21.576;2024-03-08T04:55:04;-2.40;99.90
45207;DHT22;30950;53.086;21.576;2024-03-08T04:57:32;-2.40;99.90
45207;DHT22;30950;53.086;21.576;2024-03-08T04:59:59;-2.40;99.90
45207;DHT22;30950;53.086;21.576;2024-03-08T05:02:27;-2.50;99.90
45207;DHT22;30950;53.086;21.576;2024-03-08T05:04:54;-2.40;99.90
45207;DHT22;30950;53.086;21.576;2024-03-08T05:07:22;-2.50;99.90
45207;DHT22;30950;53.086;21.576;2024-03-08T05:09:49;-2.50;99.90
45207;DHT22;30950;53.086;21.576;2024-03-08T05:12:18;-2.50;99.90
45207;DHT22;30950;53.086;21.576;2024-03-08T05:14:46;-2.50;99.90
45207;DHT22;30950;53.086;21.576;2024-03-08T05:17:16;-2.50;99.90
45207;DHT22;30950;53.086;21.576;2024-03-08T05:19:45;-2.60;99.90
45207;DHT22;30950;53.086;21.576;2024-03-08T05:22:12;-2.60;99.90
45207;DHT22;30950;53.086;21.576;2024-03-08T05:24:40;-2.60;99.90
45207;DHT22;30950;53.086;21.576;2024-03-08T05:27:08;-2.60;99.90
45207;DHT22;30950;53.086;21.576;2024-03-08T05:29:35;-2.30;99.90
45207;DHT22;30950;53.086;21.576;2024-03-08T05:32:02;-2.60;99.90
45207;DHT22;30950;53.086;21.576;2024-03-08T05:36:59;-2.70;99.90
45207;DHT22;30950;53.086;21.576;2024-03-08T05:39:27;-2.60;99.90
45207;DHT22;30950;53.086;21.576;2024-03-08T05:41:57;-2.70;99.90
45207;DHT22;30950;53.086;21.576;2024-03-08T05:44:27;-2.70;99.90
45207;DHT22;30950;53.086;21.576;2024-03-08T05:46:55;-2.60;99.90
45207;DHT22;30950;53.086;21.576;2024-03-08T05:49:23;-2.60;99.90
45207;DHT22;30950;53.086;21.576;2024-03-08T05:51:51;-2.50;99.90
45207;DHT22;30950;53.086;21.576;2024-03-08T05:54:21;-2.50;99.90
45207;DHT22;30950;53.086;21.576;2024-03-08T05:56:52;-2.40;99.90
45207;DHT22;30950;53.086;21.576;2024-03-08T05:59:20;-2.50;99.90
45207;DHT22;30950;53.086;21.576;2024-03-08T06:01:50;-2.60;99.90
45207;DHT22;30950;53.086;21.576;2024-03-08T06:04:18;-2.40;99.90
45207;DHT22;30950;53.086;21.576;2024-03-08T06:06:45;-2.40;99.90
45207;DHT22;30950;53.086;21.576;2024-03-08T06:09:12;-2.40;99.90
45207;DHT22;30950;53.086;21.576;2024-03-08T06:11:43;-2.40;99.90
45207;DHT22;30950;53.086;21.576;2024-03-08T06:14:12;-2.30;99.90
45207;DHT22;30950;53.086;21.576;2024-03-08T06:16:39;-2.30;99.90
45207;DHT22;30950;53.086;21.576;2024-03-08T06:19:06;-2.20;99.90
45207;DHT22;30950;53.086;21.576;2024-03-08T06:21:35;-2.00;99.90
45207;DHT22;30950;53.086;21.576;2024-03-08T06:24:02;-2.10;99.90
45207;DHT22;30950;53.086;21.576;2024-03-08T06:26:30;-2.00;99.90
45207;DHT22;30950;53.086;21.576;2024-03-08T06:28:59;-1.90;99.90
45207;DHT22;30950;53.086;21.576;2024-03-08T06:31:26;-0.30;99.90
45207;DHT22;30950;53.086;21.576;2024-03-08T06:33:53;-2.10;99.90
45207;DHT22;30950;53.086;21.576;2024-03-08T06:36:25;-1.70;99.90
45207;DHT22;30950;53.086;21.576;2024-03-08T06:38:52;-1.70;99.90
45207;DHT22;30950;53.086;21.576;2024-03-08T06:41:20;-1.60;99.90
45207;DHT22;30950;53.086;21.576;2024-03-08T06:43:48;-1.40;99.90
45207;DHT22;30950;53.086;21.576;2024-03-08T06:46:16;-1.40;99.90
45207;DHT22;30950;53.086;21.576;2024-03-08T06:48:44;-1.40;99.90
45207;DHT22;30950;53.086;21.576;2024-03-08T06:51:13;-1.20;99.90
45207;DHT22;30950;53.086;21.576;2024-03-08T06:53:42;-1.20;99.90
45207;DHT22;30950;53.086;21.576;2024-03-08T06:56:09;-1.00;99.90
45207;DHT22;30950;53.086;21.576;2024-03-08T06:58:37;-0.80;99.90
45207;DHT22;30950;53.086;21.576;2024-03-08T07:01:04;-0.70;99.90
45207;DHT22;30950;53.086;21.576;2024-03-08T07:03:35;-0.70;99.90
45207;DHT22;30950;53.086;21.576;2024-03-08T07:06:02;-1.10;99.90
45207;DHT22;30950;53.086;21.576;2024-03-08T07:10:59;-0.50;99.90
45207;DHT22;30950;53.086;21.576;2024-03-08T07:13:27;-0.30;99.90
45207;DHT22;30950;53.086;21.576;2024-03-08T07:15:57;-0.30;99.90
45207;DHT22;30950;53.086;21.576;2024-03-08T07:18:28;-0.10;99.90
45207;DHT22;30950;53.086;21.576;2024-03-08T07:20:57;-0.10;99.90
45207;DHT22;30950;53.086;21.576;2024-03-08T07:23:25;0.00;99.90
45207;DHT22;30950;53.086;21.576;2024-03-08T07:26:15;0.30;99.90
45207;DHT22;30950;53.086;21.576;2024-03-08T07:28:42;0.30;99.90
45207;DHT22;30950;53.086;21.576;2024-03-08T07:31:09;0.40;99.90
45207;DHT22;30950;53.086;21.576;2024-03-08T07:33:48;0.60;99.90
45207;DHT22;30950;53.086;21.576;2024-03-08T07:36:17;0.50;99.90
45207;DHT22;30950;53.086;21.576;2024-03-08T07:38:45;0.60;99.90
45207;DHT22;30950;53.086;21.576;2024-03-08T07:41:15;0.80;99.90
45207;DHT22;30950;53.086;21.576;2024-03-08T07:43:43;0.90;99.90
45207;DHT22;30950;53.086;21.576;2024-03-08T07:46:10;0.90;99.90
45207;DHT22;30950;53.086;21.576;2024-03-08T07:48:38;0.90;99.90
45207;DHT22;30950;53.086;21.576;2024-03-08T07:51:07;1.10;99.90
45207;DHT22;30950;53.086;21.576;2024-03-08T07:53:37;1.20;99.90
45207;DHT22;30950;53.086;21.576;2024-03-08T07:56:05;1.40;99.90
45207;DHT22;30950;53.086;21.576;2024-03-08T07:58:32;1.40;99.90
45207;DHT22;30950;53.086;21.576;2024-03-08T08:01:01;1.50;99.90
45207;DHT22;30950;53.086;21.576;2024-03-08T08:03:29;1.70;99.90
45207;DHT22;30950;53.086;21.576;2024-03-08T08:05:57;1.70;99.90
45207;DHT22;30950;53.086;21.576;2024-03-08T08:08:24;1.90;99.90
45207;DHT22;30950;53.086;21.576;2024-03-08T08:10:53;2.00;99.90
45207;DHT22;30950;53.086;21.576;2024-03-08T08:13:21;2.10;99.90
45207;DHT22;30950;53.086;21.576;2024-03-08T08:15:49;2.20;99.90
45207;DHT22;30950;53.086;21.576;2024-03-08T08:18:17;2.20;99.90
45207;DHT22;30950;53.086;21.576;2024-03-08T08:20:46;2.40;99.90
45207;DHT22;30950;53.086;21.576;2024-03-08T08:23:14;2.60;99.90
45207;DHT22;30950;53.086;21.576;2024-03-08T08:25:42;2.70;99.90
45207;DHT22;30950;53.086;21.576;2024-03-08T08:28:09;2.80;99.90
45207;DHT22;30950;53.086;21.576;2024-03-08T08:30:36;2.80;99.90
45207;DHT22;30950;53.086;21.576;2024-03-08T08:33:05;2.90;99.90
45207;DHT22;30950;53.086;21.576;2024-03-08T08:35:33;3.10;99.90
45207;DHT22;30950;53.086;21.576;2024-03-08T08:38:00;3.20;99.90
45207;DHT22;30950;53.086;21.576;2024-03-08T08:40:28;3.20;99.90
45207;DHT22;30950;53.086;21.576;2024-03-08T08:42:58;3.20;99.90
45207;DHT22;30950;53.086;21.576;2024-03-08T08:45:25;3.40;99.90
45207;DHT22;30950;53.086;21.576;2024-03-08T08:47:53;3.50;99.90
45207;DHT22;30950;53.086;21.576;2024-03-08T08:50:22;3.60;99.90
45207;DHT22;30950;53.086;21.576;2024-03-08T08:52:54;3.70;99.90
45207;DHT22;30950;53.086;21.576;2024-03-08T08:55:21;3.90;99.90
45207;DHT22;30950;53.086;21.576;2024-03-08T08:57:52;4.00;99.90
45207;DHT22;30950;53.086;21.576;2024-03-08T09:00:20;4.10;99.90
45207;DHT22;30950;53.086;21.576;2024-03-08T09:02:48;4.10;99.90
45207;DHT22;30950;53.086;21.576;2024-03-08T09:05:16;4.30;99.90
45207;DHT22;30950;53.086;21.576;2024-03-08T09:07:44;4.30;99.90
45207;DHT22;30950;53.086;21.576;2024-03-08T09:10:12;4.50;99.90
45207;DHT22;30950;53.086;21.576;2024-03-08T09:12:44;4.60;99.90
45207;DHT22;30950;53.086;21.576;2024-03-08T09:15:12;4.70;99.90
45207;DHT22;30950;53.086;21.576;2024-03-08T09:17:40;4.70;99.90
45207;DHT22;30950;53.086;21.576;2024-03-08T09:20:08;4.80;99.90
45207;DHT22;30950;53.086;21.576;2024-03-08T09:22:37;4.90;99.90
45207;DHT22;30950;53.086;21.576;2024-03-08T09:25:05;5.00;99.90
45207;DHT22;30950;53.086;21.576;2024-03-08T09:27:33;5.10;99.90
45207;DHT22;30950;53.086;21.576;2024-03-08T09:30:06;5.20;98.40
45207;DHT22;30950;53.086;21.576;2024-03-08T09:32:35;5.30;99.20
45207;DHT22;30950;53.086;21.576;2024-03-08T09:35:04;5.30;97.60
45207;DHT22;30950;53.086;21.576;2024-03-08T09:37:35;5.40;95.10
45207;DHT22;30950;53.086;21.576;2024-03-08T09:40:02;5.50;94.60
45207;DHT22;30950;53.086;21.576;2024-03-08T09:42:32;5.50;94.30
45207;DHT22;30950;53.086;21.576;2024-03-08T09:44:59;5.70;93.50
45207;DHT22;30950;53.086;21.576;2024-03-08T09:47:26;5.70;91.60
45207;DHT22;30950;53.086;21.576;2024-03-08T09:50:00;5.80;93.60
45207;DHT22;30950;53.086;21.576;2024-03-08T09:52:29;5.90;86.80
45207;DHT22;30950;53.086;21.576;2024-03-08T09:54:58;5.90;90.20
45207;DHT22;30950;53.086;21.576;2024-03-08T09:57:25;6.10;81.30
45207;DHT22;30950;53.086;21.576;2024-03-08T09:59:52;6.30;74.80
45207;DHT22;30950;53.086;21.576;2024-03-08T10:02:20;6.20;76.60
45207;DHT22;30950;53.086;21.576;2024-03-08T10:04:48;6.40;78.10
45207;DHT22;30950;53.086;21.576;2024-03-08T10:07:15;6.30;82.80
45207;DHT22;30950;53.086;21.576;2024-03-08T10:09:43;9.50;85.20
45207;DHT22;30950;53.086;21.576;2024-03-08T10:12:17;6.50;76.20
45207;DHT22;30950;53.086;21.576;2024-03-08T10:14:46;6.60;80.20
45207;DHT22;30950;53.086;21.576;2024-03-08T10:17:14;6.70;79.60
45207;DHT22;30950;53.086;21.576;2024-03-08T10:19:49;6.70;76.40
45207;DHT22;30950;53.086;21.576;2024-03-08T10:22:16;6.70;74.70
45207;DHT22;30950;53.086;21.576;2024-03-08T10:24:45;6.80;73.50
45207;DHT22;30950;53.086;21.576;2024-03-08T10:27:13;6.90;74.00
45207;DHT22;30950;53.086;21.576;2024-03-08T10:29:40;7.40;75.10
45207;DHT22;30950;53.086;21.576;2024-03-08T10:32:11;7.10;74.20
45207;DHT22;30950;53.086;21.576;2024-03-08T10:34:39;7.10;69.70
45207;DHT22;30950;53.086;21.576;2024-03-08T10:37:06;7.10;70.70
45207;DHT22;30950;53.086;21.576;2024-03-08T10:39:35;7.20;68.50
45207;DHT22;30950;53.086;21.576;2024-03-08T10:42:05;7.20;71.10
45207;DHT22;30950;53.086;21.576;2024-03-08T10:44:40;7.30;72.00
45207;DHT22;30950;53.086;21.576;2024-03-08T10:47:16;7.30;72.50
45207;DHT22;30950;53.086;21.576;2024-03-08T10:49:51;7.60;71.50
45207;DHT22;30950;53.086;21.576;2024-03-08T10:52:21;8.30;74.50
45207;DHT22;30950;53.086;21.576;2024-03-08T10:54:52;8.20;72.80
45207;DHT22;30950;53.086;21.576;2024-03-08T10:57:19;9.00;73.30
45207;DHT22;30950;53.086;21.576;2024-03-08T10:59:47;9.30;69.80
45207;DHT22;30950;53.086;21.576;2024-03-08T11:02:17;9.30;67.70
45207;DHT22;30950;53.086;21.576;2024-03-08T11:04:47;9.20;65.50
45207;DHT22;30950;53.086;21.576;2024-03-08T11:07:16;8.90;65.60
45207;DHT22;30950;53.086;21.576;2024-03-08T11:09:48;8.80;66.90
45207;DHT22;30950;53.086;21.576;2024-03-08T11:12:28;8.60;66.50
45207;DHT22;30950;53.086;21.576;2024-03-08T11:15:02;8.50;64.00
45207;DHT22;30950;53.086;21.576;2024-03-08T11:20:13;8.40;63.70
45207;DHT22;30950;53.086;21.576;2024-03-08T11:22:51;8.30;60.80
45207;DHT22;30950;53.086;21.576;2024-03-08T11:25:32;8.20;64.20
45207;DHT22;30950;53.086;21.576;2024-03-08T11:28:34;8.20;60.70
45207;DHT22;30950;53.086;21.576;2024-03-08T11:33:28;8.10;63.10
45207;DHT22;30950;53.086;21.576;2024-03-08T11:38:42;8.10;61.30
45207;DHT22;30950;53.086;21.576;2024-03-08T11:41:11;8.10;60.90
45207;DHT22;30950;53.086;21.576;2024-03-08T11:43:45;8.20;59.70
45207;DHT22;30950;53.086;21.576;2024-03-08T11:46:14;8.20;61.20
45207;DHT22;30950;53.086;21.576;2024-03-08T11:48:42;8.30;58.70
45207;DHT22;30950;53.086;21.576;2024-03-08T11:51:12;8.30;60.80
45207;DHT22;30950;53.086;21.576;2024-03-08T11:53:41;8.40;61.30
45207;DHT22;30950;53.086;21.576;2024-03-08T11:56:11;8.50;60.40
45207;DHT22;30950;53.086;21.576;2024-03-08T11:58:39;8.50;60.80
45207;DHT22;30950;53.086;21.576;2024-03-08T12:01:08;8.50;59.70
45207;DHT22;30950;53.086;21.576;2024-03-08T12:03:44;8.50;60.80
45207;DHT22;30950;53.086;21.576;2024-03-08T12:06:19;8.60;60.70
45207;DHT22;30950;53.086;21.576;2024-03-08T12:08:46;8.60;58.50
45207;DHT22;30950;53.086;21.576;2024-03-08T12:11:19;8.70;60.10
45207;DHT22;30950;53.086;21.576;2024-03-08T12:13:50;8.80;60.90
45207;DHT22;30950;53.086;21.576;2024-03-08T12:16:19;8.80;57.20
45207;DHT22;30950;53.086;21.576;2024-03-08T12:18:48;8.80;59.00
45207;DHT22;30950;53.086;21.576;2024-03-08T12:21:15;8.90;60.80
45207;DHT22;30950;53.086;21.576;2024-03-08T12:23:44;8.90;59.30
45207;DHT22;30950;53.086;21.576;2024-03-08T12:26:15;9.00;59.20
45207;DHT22;30950;53.086;21.576;2024-03-08T12:28:44;8.90;58.60
45207;DHT22;30950;53.086;21.576;2024-03-08T12:31:18;9.00;57.00
45207;DHT22;30950;53.086;21.576;2024-03-08T12:33:51;8.90;58.00
45207;DHT22;30950;53.086;21.576;2024-03-08T12:36:23;9.00;57.60
45207;DHT22;30950;53.086;21.576;2024-03-08T12:38:51;9.00;57.80
45207;DHT22;30950;53.086;21.576;2024-03-08T12:41:18;9.10;59.00
45207;DHT22;30950;53.086;21.576;2024-03-08T12:43:46;9.10;58.20
45207;DHT22;30950;53.086;21.576;2024-03-08T12:46:17;9.20;58.60
45207;DHT22;30950;53.086;21.576;2024-03-08T12:48:47;9.20;59.20
45207;DHT22;30950;53.086;21.576;2024-03-08T12:51:15;9.30;57.30
45207;DHT22;30950;53.086;21.576;2024-03-08T12:53:43;8.60;56.40
45207;DHT22;30950;53.086;21.576;2024-03-08T12:56:19;9.40;56.30
45207;DHT22;30950;53.086;21.576;2024-03-08T12:58:47;9.40;57.60
45207;DHT22;30950;53.086;21.576;2024-03-08T13:01:15;9.40;56.30
45207;DHT22;30950;53.086;21.576;2024-03-08T13:03:42;9.50;56.80
45207;DHT22;30950;53.086;21.576;2024-03-08T13:06:10;9.50;52.80
45207;DHT22;30950;53.086;21.576;2024-03-08T13:08:38;9.50;53.90
45207;DHT22;30950;53.086;21.576;2024-03-08T13:11:08;9.60;55.80
45207;DHT22;30950;53.086;21.576;2024-03-08T13:13:40;9.70;54.40
45207;DHT22;30950;53.086;21.576;2024-03-08T13:16:07;9.80;56.00
45207;DHT22;30950;53.086;21.576;2024-03-08T13:18:36;9.80;53.40
45207;DHT22;30950;53.086;21.576;2024-03-08T13:21:03;9.70;53.10
45207;DHT22;30950;53.086;21.576;2024-03-08T13:23:35;9.80;52.80
45207;DHT22;30950;53.086;21.576;2024-03-08T13:26:12;9.80;53.40
45207;DHT22;30950;53.086;21.576;2024-03-08T13:28:46;9.80;53.90
45207;DHT22;30950;53.086;21.576;2024-03-08T13:31:15;9.80;54.90
45207;DHT22;30950;53.086;21.576;2024-03-08T13:33:44;10.00;55.50
45207;DHT22;30950;53.086;21.576;2024-03-08T13:36:14;10.10;53.70
45207;DHT22;30950;53.086;21.576;2024-03-08T13:38:42;10.30;51.10
45207;DHT22;30950;53.086;21.576;2024-03-08T13:41:10;10.40;52.70
45207;DHT22;30950;53.086;21.576;2024-03-08T13:43:39;10.50;51.30
45207;DHT22;30950;53.086;21.576;2024-03-08T13:46:07;10.70;53.20
45207;DHT22;30950;53.086;21.576;2024-03-08T13:48:35;11.20;56.20
45207;DHT22;30950;53.086;21.576;2024-03-08T13:51:03;11.70;56.20
45207;DHT22;30950;53.086;21.576;2024-03-08T13:53:30;12.40;54.90
45207;DHT22;30950;53.086;21.576;2024-03-08T13:55:57;12.90;55.50
45207;DHT22;30950;53.086;21.576;2024-03-08T13:58:25;13.40;55.70
45207;DHT22;30950;53.086;21.576;2024-03-08T14:00:52;13.90;56.20
45207;DHT22;30950;53.086;21.576;2024-03-08T14:03:20;14.50;56.30
45207;DHT22;30950;53.086;21.576;2024-03-08T14:05:48;14.90;53.20
45207;DHT22;30950;53.086;21.576;2024-03-08T14:08:15;15.50;53.20
45207;DHT22;30950;53.086;21.576;2024-03-08T14:10:44;15.90;53.90
45207;DHT22;30950;53.086;21.576;2024-03-08T14:13:14;16.30;52.50
45207;DHT22;30950;53.086;21.576;2024-03-08T14:15:43;16.50;48.20
45207;DHT22;30950;53.086;21.576;2024-03-08T14:18:13;17.60;50.40
45207;DHT22;30950;53.086;21.576;2024-03-08T14:20:40;16.80;49.60
45207;DHT22;30950;53.086;21.576;2024-03-08T14:23:09;17.00;48.70
45207;DHT22;30950;53.086;21.576;2024-03-08T14:25:37;17.20;50.60
45207;DHT22;30950;53.086;21.576;2024-03-08T14:28:04;17.10;49.60
45207;DHT22;30950;53.086;21.576;2024-03-08T14:30:34;16.90;48.70
45207;DHT22;30950;53.086;21.576;2024-03-08T14:33:03;16.50;45.40
45207;DHT22;30950;53.086;21.576;2024-03-08T14:35:32;16.00;45.80
45207;DHT22;30950;53.086;21.576;2024-03-08T14:38:01;15.20;44.30
45207;DHT22;30950;53.086;21.576;2024-03-08T14:40:29;14.90;45.00
45207;DHT22;30950;53.086;21.576;2024-03-08T14:42:58;14.00;44.10
45207;DHT22;30950;53.086;21.576;2024-03-08T14:45:25;13.50;45.00
45207;DHT22;30950;53.086;21.576;2024-03-08T14:47:53;12.90;44.30
45207;DHT22;30950;53.086;21.576;2024-03-08T14:50:22;12.60;46.20
45207;DHT22;30950;53.086;21.576;2024-03-08T14:52:51;12.40;45.70
45207;DHT22;30950;53.086;21.576;2024-03-08T14:55:19;12.00;46.50
45207;DHT22;30950;53.086;21.576;2024-03-08T14:57:49;11.70;46.40
45207;DHT22;30950;53.086;21.576;2024-03-08T15:00:20;11.40;46.40
45207;DHT22;30950;53.086;21.576;2024-03-08T15:02:54;11.10;47.30
45207;DHT22;30950;53.086;21.576;2024-03-08T15:05:22;11.10;47.40
45207;DHT22;30950;53.086;21.576;2024-03-08T15:07:54;10.90;47.00
45207;DHT22;30950;53.086;21.576;2024-03-08T15:10:22;10.80;47.10
45207;DHT22;30950;53.086;21.576;2024-03-08T15:12:53;10.50;47.60
45207;DHT22;30950;53.086;21.576;2024-03-08T15:15:23;10.40;47.80
45207;DHT22;30950;53.086;21.576;2024-03-08T15:17:52;10.30;47.10
45207;DHT22;30950;53.086;21.576;2024-03-08T15:20:21;10.20;47.00
45207;DHT22;30950;53.086;21.576;2024-03-08T15:22:57;10.00;48.10
45207;DHT22;30950;53.086;21.576;2024-03-08T15:25:26;10.00;48.00
45207;DHT22;30950;53.086;21.576;2024-03-08T15:27:54;9.90;48.60
45207;DHT22;30950;53.086;21.576;2024-03-08T15:30:21;9.70;48.80
45207;DHT22;30950;53.086;21.576;2024-03-08T15:32:58;9.60;49.10
45207;DHT22;30950;53.086;21.576;2024-03-08T15:35:28;9.50;49.30
45207;DHT22;30950;53.086;21.576;2024-03-08T15:37:55;9.40;49.50
45207;DHT22;30950;53.086;21.576;2024-03-08T15:40:25;9.40;49.50
45207;DHT22;30950;53.086;21.576;2024-03-08T15:42:59;9.30;50.10
45207;DHT22;30950;53.086;21.576;2024-03-08T15:45:27;9.20;49.60
45207;DHT22;30950;53.086;21.576;2024-03-08T15:47:54;9.10;49.70
45207;DHT22;30950;53.086;21.576;2024-03-08T15:50:21;9.00;49.90